createdAt,value
2019-05-14T00:00:02.478Z,103473.98
2019-05-14T00:00:27.359Z,103474.84
2019-05-14T00:00:52.824Z,103473.98
2019-05-14T00:01:17.895Z,103472.20
2019-05-14T00:01:43.078Z,103473.10
2019-05-14T00:02:07.897Z,103475.81
2019-05-14T00:02:33.117Z,103474.03
2019-05-14T00:02:58.383Z,103470.93
2019-05-14T00:03:23.386Z,103479.05
2019-05-14T00:03:48.578Z,103471.43
2019-05-14T00:04:14.163Z,103471.43
2019-05-14T00:04:39.317Z,103477.77
2019-05-14T00:05:05.372Z,103471.97
2019-05-14T00:05:32.147Z,103478.31
2019-05-14T00:05:56.903Z,103476.06
2019-05-14T00:06:22.125Z,103476.10
2019-05-14T00:06:47.300Z,103475.21
2019-05-14T00:07:12.475Z,103475.28
2019-05-14T00:07:37.555Z,103479.81
2019-05-14T00:08:02.481Z,103477.14
2019-05-14T00:08:27.670Z,103471.72
2019-05-14T00:08:52.873Z,103471.80
2019-05-14T00:09:18.023Z,103472.72
2019-05-14T00:09:43.516Z,103474.11
2019-05-14T00:10:09.017Z,103476.82
2019-05-14T00:10:34.201Z,103474.64
2019-05-14T00:11:01.461Z,103471.94
2019-05-14T00:11:25.957Z,103470.16
2019-05-14T00:11:51.373Z,103475.64
2019-05-14T00:12:16.698Z,103472.97
2019-05-14T00:12:42.082Z,103476.56
2019-05-14T00:13:06.989Z,103471.19
2019-05-14T00:13:32.354Z,103478.42
2019-05-14T00:13:57.359Z,103474.43
2019-05-14T00:14:36.579Z,103463.31
2019-05-14T00:14:51.461Z,103473.15
2019-05-14T00:15:16.067Z,103473.15
2019-05-14T00:15:41.529Z,103470.05
2019-05-14T00:16:06.627Z,103467.80
2019-05-14T00:16:31.628Z,103471.44
2019-05-14T00:16:56.831Z,103466.95
2019-05-14T00:17:22.011Z,103466.13
2019-05-14T00:17:47.184Z,103468.83
2019-05-14T00:18:12.155Z,103467.05
2019-05-14T00:18:36.972Z,103473.39
2019-05-14T00:19:02.129Z,103472.53
2019-05-14T00:19:27.315Z,103470.75
2019-05-14T00:20:06.357Z,103472.57
2019-05-14T00:20:18.911Z,103477.09
2019-05-14T00:20:44.074Z,103471.68
2019-05-14T00:21:09.255Z,103468.16
2019-05-14T00:21:34.471Z,103468.16
2019-05-14T00:22:01.927Z,103473.14
2019-05-14T00:22:25.987Z,103464.59
2019-05-14T00:22:52.172Z,103472.28
2019-05-14T00:23:17.465Z,103470.93
2019-05-14T00:23:42.647Z,103470.53
2019-05-14T00:24:07.505Z,103464.69
2019-05-14T00:24:32.529Z,103466.55
2019-05-14T00:24:57.775Z,103463.84
2019-05-14T00:25:23.001Z,103462.09
2019-05-14T00:25:48.198Z,103466.61
2019-05-14T00:26:13.017Z,103466.19
2019-05-14T00:26:38.079Z,103464.87
2019-05-14T00:27:03.250Z,103468.00
2019-05-14T00:27:28.429Z,103468.92
2019-05-14T00:27:53.601Z,103463.58
2019-05-14T00:28:18.424Z,103459.98
2019-05-14T00:28:43.419Z,103465.39
2019-05-14T00:29:11.098Z,103460.91
2019-05-14T00:29:35.448Z,103461.38
2019-05-14T00:30:02.356Z,103463.68
2019-05-14T00:30:27.144Z,103461.47
2019-05-14T00:30:52.559Z,103462.36
2019-05-14T00:31:17.881Z,103457.88
2019-05-14T00:31:42.844Z,103463.29
2019-05-14T00:32:08.067Z,103462.86
2019-05-14T00:32:33.252Z,103464.74
2019-05-14T00:32:58.307Z,103461.11
2019-05-14T00:33:23.508Z,103456.63
2019-05-14T00:33:48.306Z,103458.44
2019-05-14T00:34:14.687Z,103457.09
2019-05-14T00:34:42.155Z,103456.66
2019-05-14T00:35:07.586Z,103467.02
2019-05-14T00:35:35.574Z,103452.59
2019-05-14T00:35:59.293Z,103458.47
2019-05-14T00:36:24.483Z,103454.02
2019-05-14T00:36:52.244Z,103456.73
2019-05-14T00:37:16.015Z,103449.96
2019-05-14T00:37:41.582Z,103456.30
2019-05-14T00:38:06.953Z,103453.59
2019-05-14T00:38:32.161Z,103454.95
2019-05-14T00:38:56.966Z,103460.36
2019-05-14T00:39:21.977Z,103457.22
2019-05-14T00:39:47.154Z,103457.66
2019-05-14T00:40:12.343Z,103459.04
2019-05-14T00:40:37.540Z,103460.39
2019-05-14T00:41:02.371Z,103458.64
2019-05-14T00:41:27.385Z,103460.45
2019-05-14T00:41:52.570Z,103450.56
2019-05-14T00:42:17.839Z,103454.62
2019-05-14T00:42:42.659Z,103440.53
2019-05-14T00:43:07.827Z,103440.53
2019-05-14T00:43:32.842Z,103460.03
2019-05-14T00:43:57.990Z,103458.25
2019-05-14T00:44:23.176Z,103463.66
2019-05-14T00:44:54.262Z,103458.31
2019-05-14T00:45:14.928Z,103452.41
2019-05-14T00:45:41.760Z,103458.34
2019-05-14T00:46:06.812Z,103460.13
2019-05-14T00:46:31.654Z,103453.86
2019-05-14T00:46:56.874Z,103457.92
2019-05-14T00:47:22.126Z,103456.56
2019-05-14T00:47:47.192Z,103461.09
2019-05-14T00:48:12.930Z,103458.84
2019-05-14T00:48:37.912Z,103460.63
2019-05-14T00:49:03.121Z,103454.39
2019-05-14T00:49:28.302Z,103454.78
2019-05-14T00:49:53.362Z,103454.39
2019-05-14T00:50:18.552Z,103458.45
2019-05-14T00:50:43.401Z,103455.31
2019-05-14T00:51:11.087Z,103454.84
2019-05-14T00:51:36.362Z,103453.50
2019-05-14T00:52:02.366Z,103454.45
2019-05-14T00:52:27.396Z,103452.67
2019-05-14T00:52:52.594Z,103457.16
2019-05-14T00:53:17.782Z,103458.09
2019-05-14T00:53:43.060Z,103457.66
2019-05-14T00:54:08.056Z,103458.12
2019-05-14T00:54:32.851Z,103455.88
2019-05-14T00:54:58.047Z,103454.52
2019-05-14T00:55:23.570Z,103452.25
2019-05-14T00:55:48.737Z,103453.17
2019-05-14T00:56:14.114Z,103447.36
2019-05-14T00:56:41.450Z,103446.02
2019-05-14T00:57:06.348Z,103454.59
2019-05-14T00:57:31.720Z,103453.70
2019-05-14T00:57:56.620Z,103450.10
2019-05-14T00:58:21.915Z,103451.91
2019-05-14T00:58:47.182Z,103450.56
2019-05-14T00:59:12.146Z,103451.02
2019-05-14T00:59:37.337Z,103450.20
2019-05-14T01:00:02.163Z,103452.44
2019-05-14T01:00:27.188Z,103455.15
2019-05-14T01:00:52.716Z,103454.26
2019-05-14T01:01:18.244Z,103448.88
2019-05-14T01:01:43.128Z,103446.20
2019-05-14T01:02:08.436Z,103448.88
2019-05-14T01:02:33.448Z,103451.62
2019-05-14T01:02:58.634Z,103446.20
2019-05-14T01:03:23.704Z,103445.35
2019-05-14T01:03:48.866Z,103438.16
2019-05-14T01:04:14.965Z,103441.75
2019-05-14T01:04:42.515Z,103443.57
2019-05-14T01:05:07.766Z,103437.73
2019-05-14T01:05:33.006Z,103438.19
2019-05-14T01:05:58.171Z,103435.95
2019-05-14T01:06:23.344Z,103438.66
2019-05-14T01:06:48.334Z,103435.05
2019-05-14T01:07:13.316Z,103435.55
2019-05-14T01:07:38.516Z,103436.47
2019-05-14T01:08:03.712Z,103436.47
2019-05-14T01:08:28.883Z,103438.75
2019-05-14T01:08:53.687Z,103440.53
2019-05-14T01:09:18.934Z,103439.67
2019-05-14T01:09:44.108Z,103442.81
2019-05-14T01:10:11.464Z,103441.02
2019-05-14T01:10:35.791Z,103446.86
2019-05-14T01:11:01.581Z,103443.73
2019-05-14T01:11:27.002Z,103442.88
2019-05-14T01:11:52.193Z,103441.98
2019-05-14T01:12:17.294Z,103434.80
2019-05-14T01:12:43.566Z,103440.66
2019-05-14T01:13:08.550Z,103435.25
2019-05-14T01:13:34.140Z,103438.42
2019-05-14T01:13:58.954Z,103434.83
2019-05-14T01:14:24.150Z,103434.89
2019-05-14T01:14:51.474Z,103437.59
2019-05-14T01:15:16.035Z,103438.95
2019-05-14T01:15:41.511Z,103435.34
2019-05-14T01:16:06.968Z,103435.81
2019-05-14T01:16:33.119Z,103435.81
2019-05-14T01:16:58.291Z,103436.73
2019-05-14T01:17:22.978Z,103432.67
2019-05-14T01:17:48.160Z,103434.09
2019-05-14T01:18:13.335Z,103431.78
2019-05-14T01:18:38.512Z,103434.09
2019-05-14T01:19:03.570Z,103431.86
2019-05-14T01:19:28.592Z,103435.91
2019-05-14T01:19:53.800Z,103432.31
2019-05-14T01:20:21.155Z,103432.31
2019-05-14T01:20:45.520Z,103431.42
2019-05-14T01:21:11.658Z,103433.23
2019-05-14T01:21:36.947Z,103432.34
2019-05-14T01:22:02.128Z,103429.64
2019-05-14T01:22:26.938Z,103427.00
2019-05-14T01:22:52.150Z,103429.70
2019-05-14T01:23:17.335Z,103427.92
2019-05-14T01:23:42.435Z,103430.17
2019-05-14T01:24:07.689Z,103432.44
2019-05-14T01:24:32.521Z,103424.33
2019-05-14T01:24:57.696Z,103426.11
2019-05-14T01:25:23.777Z,103416.68
2019-05-14T01:25:48.922Z,103430.20
2019-05-14T01:26:14.536Z,103420.73
2019-05-14T01:26:41.638Z,103427.52
2019-05-14T01:27:06.595Z,103419.41
2019-05-14T01:27:31.860Z,103419.91
2019-05-14T01:27:56.523Z,103431.58
2019-05-14T01:28:21.862Z,103422.19
2019-05-14T01:28:47.059Z,103419.48
2019-05-14T01:29:13.051Z,103424.42
2019-05-14T01:29:37.879Z,103423.53
2019-05-14T01:30:02.891Z,103423.11
2019-05-14T01:30:28.173Z,103417.23
2019-05-14T01:30:53.338Z,103419.05
2019-05-14T01:31:18.499Z,103412.75
2019-05-14T01:31:43.293Z,103421.82
2019-05-14T01:32:08.343Z,103420.86
2019-05-14T01:32:34.060Z,103421.82
2019-05-14T01:33:01.529Z,103423.17
2019-05-14T01:33:25.807Z,103424.03
2019-05-14T01:33:51.566Z,103419.11
2019-05-14T01:34:16.760Z,103421.82
2019-05-14T01:34:42.403Z,103428.09
2019-05-14T01:35:07.694Z,103425.45
2019-05-14T01:35:33.052Z,103421.84
2019-05-14T01:35:58.229Z,103424.09
2019-05-14T01:36:23.226Z,103420.06
2019-05-14T01:36:48.503Z,103418.72
2019-05-14T01:37:14.595Z,103419.15
2019-05-14T01:37:41.601Z,103414.66
2019-05-14T01:38:07.021Z,103410.67
2019-05-14T01:38:32.057Z,103417.83
2019-05-14T01:38:56.866Z,103420.13
2019-05-14T01:39:22.241Z,103415.12
2019-05-14T01:39:47.412Z,103409.32
2019-05-14T01:40:12.664Z,103412.94
2019-05-14T01:40:37.297Z,103412.52
2019-05-14T01:41:02.493Z,103405.75
2019-05-14T01:41:27.652Z,103413.41
2019-05-14T01:41:52.823Z,103413.87
2019-05-14T01:42:17.999Z,103408.92
2019-05-14T01:42:42.635Z,103413.44
2019-05-14T01:43:07.831Z,103413.44
2019-05-14T01:43:33.040Z,103412.09
2019-05-14T01:43:58.495Z,103413.44
2019-05-14T01:44:23.856Z,103417.03
2019-05-14T01:44:48.483Z,103412.09
2019-05-14T01:45:24.463Z,103405.39
2019-05-14T01:45:41.711Z,103408.55
2019-05-14T01:46:07.141Z,103412.15
2019-05-14T01:46:32.033Z,103406.31
2019-05-14T01:46:57.052Z,103410.37
2019-05-14T01:47:22.443Z,103409.48
2019-05-14T01:47:47.760Z,103406.77
2019-05-14T01:48:12.617Z,103408.12
2019-05-14T01:48:37.816Z,103402.75
2019-05-14T01:49:02.970Z,103404.98
2019-05-14T01:49:28.141Z,103404.09
2019-05-14T01:49:53.326Z,103410.86
2019-05-14T01:50:18.151Z,103407.30
2019-05-14T01:50:43.301Z,103399.65
2019-05-14T01:51:08.283Z,103411.75
2019-05-14T01:51:33.435Z,103404.59
2019-05-14T01:51:58.597Z,103407.76
2019-05-14T01:52:23.469Z,103405.06
2019-05-14T01:52:48.799Z,103408.22
2019-05-14T01:53:13.868Z,103408.22
2019-05-14T01:53:41.465Z,103411.84
2019-05-14T01:54:05.545Z,103407.79
2019-05-14T01:54:31.717Z,103409.60
2019-05-14T01:54:57.089Z,103410.06
2019-05-14T01:55:22.089Z,103404.66
2019-05-14T01:55:46.911Z,103407.82
2019-05-14T01:56:12.147Z,103410.06
2019-05-14T01:56:37.421Z,103412.77
2019-05-14T01:57:02.630Z,103411.88
2019-05-14T01:57:27.243Z,103415.07
2019-05-14T01:57:52.478Z,103415.53
2019-05-14T01:58:17.693Z,103408.81
2019-05-14T01:58:42.873Z,103414.21
2019-05-14T01:59:08.049Z,103414.21
2019-05-14T01:59:33.315Z,103412.86
2019-05-14T01:59:58.485Z,103412.86
2019-05-14T02:00:23.676Z,103414.67
2019-05-14T02:00:49.017Z,103410.19
2019-05-14T02:01:14.641Z,103413.78
2019-05-14T02:01:41.510Z,103417.44
2019-05-14T02:02:06.767Z,103417.44
2019-05-14T02:02:31.944Z,103414.73
2019-05-14T02:02:56.748Z,103411.60
2019-05-14T02:03:22.735Z,103414.30
2019-05-14T02:03:47.791Z,103412.49
2019-05-14T02:04:13.157Z,103408.01
2019-05-14T02:04:38.191Z,103411.17
2019-05-14T02:05:03.452Z,103410.28
2019-05-14T02:05:30.939Z,103413.88
2019-05-14T02:05:55.321Z,103413.88
2019-05-14T02:06:21.290Z,103414.80
2019-05-14T02:06:46.724Z,103413.94
2019-05-14T02:07:11.907Z,103410.80
2019-05-14T02:07:37.239Z,103414.86
2019-05-14T02:08:02.029Z,103411.70
2019-05-14T02:08:27.250Z,103412.62
2019-05-14T02:08:52.504Z,103408.56
2019-05-14T02:09:17.773Z,103408.56
2019-05-14T02:09:42.572Z,103404.54
2019-05-14T02:10:08.240Z,103404.54
2019-05-14T02:10:33.470Z,103406.35
2019-05-14T02:10:58.660Z,103405.49
2019-05-14T02:11:23.474Z,103401.91
2019-05-14T02:11:48.723Z,103401.02
2019-05-14T02:12:13.733Z,103401.47
2019-05-14T02:12:38.949Z,103404.17
2019-05-14T02:13:04.188Z,103403.73
2019-05-14T02:13:29.033Z,103395.20
2019-05-14T02:13:54.215Z,103401.95
2019-05-14T02:14:19.245Z,103403.31
2019-05-14T02:14:44.607Z,103402.45
2019-05-14T02:15:11.865Z,103400.67
2019-05-14T02:15:40.027Z,103407.86
2019-05-14T02:16:03.568Z,103408.32
2019-05-14T02:16:28.549Z,103411.02
2019-05-14T02:16:53.347Z,103414.64
2019-05-14T02:17:18.544Z,103407.02
2019-05-14T02:17:43.740Z,103403.41
2019-05-14T02:18:11.055Z,103405.67
2019-05-14T02:18:35.294Z,103402.97
2019-05-14T02:19:01.390Z,103405.67
2019-05-14T02:19:26.831Z,103410.68
2019-05-14T02:19:52.008Z,103412.03
2019-05-14T02:20:17.030Z,103408.44
2019-05-14T02:20:42.769Z,103413.41
2019-05-14T02:21:08.004Z,103409.82
2019-05-14T02:21:33.186Z,103408.93
2019-05-14T02:21:58.019Z,103412.52
2019-05-14T02:22:23.215Z,103412.09
2019-05-14T02:22:48.215Z,103409.88
2019-05-14T02:23:13.464Z,103410.34
2019-05-14T02:23:38.667Z,103414.80
2019-05-14T02:24:03.455Z,103407.64
2019-05-14T02:24:28.655Z,103413.05
2019-05-14T02:24:53.645Z,103408.99
2019-05-14T02:25:18.809Z,103408.99
2019-05-14T02:25:44.030Z,103407.21
2019-05-14T02:26:08.835Z,103413.50
2019-05-14T02:26:33.998Z,103409.91
2019-05-14T02:26:58.970Z,103409.91
2019-05-14T02:27:24.141Z,103408.56
2019-05-14T02:27:49.337Z,103410.34
2019-05-14T02:28:14.685Z,103411.69
2019-05-14T02:28:41.869Z,103411.69
2019-05-14T02:29:06.611Z,103409.45
2019-05-14T02:29:32.215Z,103409.91
2019-05-14T02:29:57.178Z,103416.66
2019-05-14T02:30:28.410Z,103410.80
2019-05-14T02:30:57.470Z,103409.45
2019-05-14T02:31:16.015Z,103412.15
2019-05-14T02:31:40.863Z,103409.45
2019-05-14T02:32:06.124Z,103408.62
2019-05-14T02:32:31.332Z,103410.40
2019-05-14T02:32:59.425Z,103410.40
2019-05-14T02:33:23.016Z,103409.97
2019-05-14T02:33:50.349Z,103411.32
2019-05-14T02:34:15.197Z,103402.78
2019-05-14T02:34:40.689Z,103408.62
2019-05-14T02:35:09.627Z,103408.19
2019-05-14T02:35:33.491Z,103405.48
2019-05-14T02:35:59.945Z,103412.70
2019-05-14T02:36:25.587Z,103409.11
2019-05-14T02:36:50.431Z,103397.91
2019-05-14T02:37:15.616Z,103397.91
2019-05-14T02:37:40.690Z,103414.11
2019-05-14T02:38:05.871Z,103412.77
2019-05-14T02:38:31.053Z,103409.63
2019-05-14T02:38:55.888Z,103412.33
2019-05-14T02:39:21.064Z,103410.98
2019-05-14T02:39:46.061Z,103410.55
2019-05-14T02:40:11.241Z,103408.27
2019-05-14T02:40:40.131Z,103414.14
2019-05-14T02:41:03.049Z,103415.95
2019-05-14T02:41:29.862Z,103413.25
2019-05-14T02:41:55.089Z,103409.66
2019-05-14T02:42:20.271Z,103414.60
2019-05-14T02:42:45.091Z,103417.30
2019-05-14T02:43:10.289Z,103415.06
2019-05-14T02:43:35.547Z,103416.87
2019-05-14T02:44:00.559Z,103413.70
2019-05-14T02:44:25.382Z,103413.77
2019-05-14T02:44:50.568Z,103411.07
2019-05-14T02:45:15.741Z,103409.72
2019-05-14T02:45:58.671Z,103412.42
2019-05-14T02:46:13.109Z,103408.83
2019-05-14T02:46:34.115Z,103411.53
2019-05-14T02:46:59.496Z,103408.37
2019-05-14T02:47:24.763Z,103409.72
2019-05-14T02:47:50.547Z,103407.94
2019-05-14T02:48:15.788Z,103407.05
2019-05-14T02:48:40.992Z,103411.55
2019-05-14T02:49:06.235Z,103407.94
2019-05-14T02:49:31.209Z,103406.16
2019-05-14T02:49:59.033Z,103404.80
2019-05-14T02:50:23.127Z,103399.40
2019-05-14T02:50:49.519Z,103398.05
2019-05-14T02:51:14.836Z,103400.31
2019-05-14T02:51:40.073Z,103397.62
2019-05-14T02:52:05.234Z,103393.11
2019-05-14T02:52:30.246Z,103392.22
2019-05-14T02:52:55.437Z,103394.91
2019-05-14T02:53:20.291Z,103394.02
2019-05-14T02:53:45.521Z,103394.02
2019-05-14T02:54:10.691Z,103390.47
2019-05-14T02:54:35.683Z,103396.27
2019-05-14T02:55:00.494Z,103400.31
2019-05-14T02:55:25.673Z,103399.92
2019-05-14T02:55:50.871Z,103391.81
2019-05-14T02:56:16.063Z,103397.22
2019-05-14T02:56:41.080Z,103398.57
2019-05-14T02:57:09.885Z,103398.08
2019-05-14T02:57:32.749Z,103392.27
2019-05-14T02:57:59.850Z,103396.78
2019-05-14T02:58:24.853Z,103397.22
2019-05-14T02:58:50.014Z,103394.52
2019-05-14T02:59:15.401Z,103394.09
2019-05-14T02:59:40.706Z,103402.63
2019-05-14T03:00:10.238Z,103398.14
2019-05-14T03:00:35.329Z,103397.25
2019-05-14T03:01:00.891Z,103401.30
2019-05-14T03:01:26.169Z,103401.77
2019-05-14T03:01:51.362Z,103399.05
2019-05-14T03:02:18.566Z,103396.81
2019-05-14T03:02:43.114Z,103397.70
2019-05-14T03:03:09.815Z,103398.16
2019-05-14T03:03:35.216Z,103404.92
2019-05-14T03:04:00.088Z,103398.63
2019-05-14T03:04:25.370Z,103401.33
2019-05-14T03:04:50.446Z,103399.97
2019-05-14T03:05:15.633Z,103398.23
2019-05-14T03:05:40.476Z,103393.28
2019-05-14T03:06:05.681Z,103396.38
2019-05-14T03:06:30.851Z,103400.93
2019-05-14T03:06:59.083Z,103401.78
2019-05-14T03:07:22.344Z,103395.53
2019-05-14T03:07:49.961Z,103401.84
2019-05-14T03:08:15.445Z,103396.91
2019-05-14T03:08:40.649Z,103403.63
2019-05-14T03:09:09.382Z,103403.63
2019-05-14T03:09:32.824Z,103400.95
2019-05-14T03:09:59.410Z,103394.20
2019-05-14T03:10:24.911Z,103401.84
2019-05-14T03:10:50.542Z,103397.80
2019-05-14T03:11:16.001Z,103393.31
2019-05-14T03:11:40.987Z,103391.97
2019-05-14T03:12:09.719Z,103396.02
2019-05-14T03:12:33.185Z,103397.37
2019-05-14T03:12:59.028Z,103390.18
2019-05-14T03:13:24.400Z,103387.48
2019-05-14T03:13:49.726Z,103388.83
2019-05-14T03:14:19.327Z,103389.29
2019-05-14T03:14:44.119Z,103392.42
2019-05-14T03:15:09.953Z,103385.67
2019-05-14T03:15:35.368Z,103386.59
2019-05-14T03:16:19.034Z,103384.78
2019-05-14T03:16:32.431Z,103384.38
2019-05-14T03:16:53.806Z,103391.13
2019-05-14T03:17:20.082Z,103385.30
2019-05-14T03:17:45.481Z,103381.68
2019-05-14T03:18:10.080Z,103380.79
2019-05-14T03:18:35.271Z,103388.00
2019-05-14T03:19:00.447Z,103385.76
2019-05-14T03:19:25.662Z,103384.41
2019-05-14T03:19:50.532Z,103380.81
2019-05-14T03:20:15.681Z,103386.68
2019-05-14T03:20:40.929Z,103383.52
2019-05-14T03:21:09.143Z,103379.01
2019-05-14T03:21:32.699Z,103375.41
2019-05-14T03:22:00.221Z,103371.36
2019-05-14T03:22:38.930Z,103374.06
2019-05-14T03:23:03.038Z,103365.13
2019-05-14T03:23:22.392Z,103366.88
2019-05-14T03:23:45.088Z,103366.94
2019-05-14T03:24:10.279Z,103362.43
2019-05-14T03:24:35.296Z,103362.45
2019-05-14T03:25:00.072Z,103360.65
2019-05-14T03:25:25.258Z,103366.97
2019-05-14T03:25:50.486Z,103360.22
2019-05-14T03:26:15.747Z,103362.92
2019-05-14T03:26:40.336Z,103360.67
2019-05-14T03:27:05.595Z,103361.56
2019-05-14T03:27:30.841Z,103363.84
2019-05-14T03:27:56.039Z,103359.78
2019-05-14T03:28:21.212Z,103359.78
2019-05-14T03:28:49.274Z,103362.92
2019-05-14T03:29:12.797Z,103363.84
2019-05-14T03:29:39.945Z,103364.73
2019-05-14T03:30:05.563Z,103365.19
2019-05-14T03:30:32.443Z,103367.89
2019-05-14T03:31:02.435Z,103365.19
2019-05-14T03:31:24.012Z,103367.03
2019-05-14T03:31:52.519Z,103367.48
2019-05-14T03:32:15.756Z,103365.25
2019-05-14T03:32:42.851Z,103372.44
2019-05-14T03:33:13.042Z,103371.11
2019-05-14T03:33:34.646Z,103375.59
2019-05-14T03:34:02.707Z,103376.97
2019-05-14T03:34:32.338Z,103371.57
2019-05-14T03:34:54.329Z,103380.56
2019-05-14T03:35:23.361Z,103374.73
2019-05-14T03:35:52.074Z,103375.19
2019-05-14T03:36:18.114Z,103376.08
2019-05-14T03:36:42.883Z,103376.08
2019-05-14T03:37:13.063Z,103371.59
2019-05-14T03:37:35.601Z,103374.79
2019-05-14T03:38:00.774Z,103372.95
2019-05-14T03:38:29.316Z,103371.20
2019-05-14T03:38:52.852Z,103375.25
2019-05-14T03:39:19.092Z,103364.02
2019-05-14T03:39:44.269Z,103366.72
2019-05-14T03:40:09.670Z,103368.53
2019-05-14T03:40:34.961Z,103369.42
2019-05-14T03:41:00.524Z,103369.88
2019-05-14T03:41:25.873Z,103364.94
2019-05-14T03:41:50.884Z,103366.28
2019-05-14T03:42:19.018Z,103360.00
2019-05-14T03:42:42.628Z,103360.89
2019-05-14T03:43:09.018Z,103363.58
2019-05-14T03:43:34.478Z,103359.08
2019-05-14T03:44:00.054Z,103361.80
2019-05-14T03:44:25.143Z,103360.89
2019-05-14T03:44:50.320Z,103357.30
2019-05-14T03:45:15.482Z,103356.84
2019-05-14T03:45:40.701Z,103351.00
2019-05-14T03:46:05.344Z,103357.30
2019-05-14T03:46:44.127Z,103356.84
2019-05-14T03:47:04.433Z,103359.10
2019-05-14T03:47:24.335Z,103356.41
2019-05-14T03:47:50.560Z,103353.70
2019-05-14T03:48:18.776Z,103359.59
2019-05-14T03:48:42.984Z,103356.41
2019-05-14T03:49:09.292Z,103356.00
2019-05-14T03:49:34.356Z,103363.65
2019-05-14T03:49:59.533Z,103363.16
2019-05-14T03:50:24.570Z,103359.59
2019-05-14T03:50:49.856Z,103359.59
2019-05-14T03:51:15.039Z,103357.75
2019-05-14T03:51:40.229Z,103357.75
2019-05-14T03:52:05.400Z,103362.76
2019-05-14T03:52:30.414Z,103360.95
2019-05-14T03:52:55.605Z,103360.45
2019-05-14T03:53:20.472Z,103360.45
2019-05-14T03:53:57.248Z,103357.36
2019-05-14T03:54:13.145Z,103350.60
2019-05-14T03:54:40.691Z,103357.36
2019-05-14T03:55:09.332Z,103361.41
2019-05-14T03:55:33.624Z,103356.89
2019-05-14T03:55:59.839Z,103360.05
2019-05-14T03:56:25.325Z,103358.70
2019-05-14T03:56:50.096Z,103354.66
2019-05-14T03:57:15.426Z,103362.76
2019-05-14T03:57:40.632Z,103358.70
2019-05-14T03:58:05.786Z,103360.05
2019-05-14T03:58:30.826Z,103357.36
2019-05-14T03:58:55.962Z,103357.36
2019-05-14T03:59:21.197Z,103361.41
2019-05-14T03:59:49.604Z,103359.63
2019-05-14T04:00:13.022Z,103359.63
2019-05-14T04:00:50.129Z,103359.63
2019-05-14T04:01:14.393Z,103356.41
2019-05-14T04:01:40.267Z,103360.05
2019-05-14T04:02:05.221Z,103353.80
2019-05-14T04:02:30.421Z,103359.19
2019-05-14T04:02:55.663Z,103357.38
2019-05-14T04:03:20.772Z,103364.59
2019-05-14T04:03:45.579Z,103360.11
2019-05-14T04:04:10.738Z,103357.91
2019-05-14T04:04:39.067Z,103359.72
2019-05-14T04:05:02.785Z,103363.33
2019-05-14T04:05:29.439Z,103357.10
2019-05-14T04:05:54.335Z,103361.15
2019-05-14T04:06:19.635Z,103360.72
2019-05-14T04:06:44.931Z,103361.17
2019-05-14T04:07:10.011Z,103364.77
2019-05-14T04:07:39.118Z,103358.48
2019-05-14T04:08:02.926Z,103359.37
2019-05-14T04:08:29.298Z,103366.55
2019-05-14T04:08:54.590Z,103362.50
2019-05-14T04:09:20.368Z,103359.30
2019-05-14T04:09:49.046Z,103358.84
2019-05-14T04:10:12.843Z,103358.84
2019-05-14T04:10:39.671Z,103363.77
2019-05-14T04:11:04.498Z,103359.25
2019-05-14T04:11:29.942Z,103362.81
2019-05-14T04:11:54.961Z,103363.24
2019-05-14T04:12:19.942Z,103354.69
2019-05-14T04:12:48.899Z,103357.84
2019-05-14T04:13:12.973Z,103361.80
2019-05-14T04:13:40.533Z,103360.89
2019-05-14T04:14:04.981Z,103358.62
2019-05-14T04:14:31.747Z,103359.88
2019-05-14T04:14:59.603Z,103360.74
2019-05-14T04:15:24.100Z,103359.78
2019-05-14T04:15:49.881Z,103357.92
2019-05-14T04:16:15.451Z,103363.69
2019-05-14T04:16:58.521Z,103359.55
2019-05-14T04:17:13.731Z,103356.36
2019-05-14T04:17:38.721Z,103362.11
2019-05-14T04:18:02.263Z,103359.25
2019-05-14T04:18:29.023Z,103362.28
2019-05-14T04:18:54.507Z,103361.28
2019-05-14T04:19:19.677Z,103360.72
2019-05-14T04:19:45.330Z,103360.59
2019-05-14T04:20:10.500Z,103355.00
2019-05-14T04:20:35.487Z,103357.58
2019-05-14T04:21:00.673Z,103360.16
2019-05-14T04:21:25.476Z,103360.02
2019-05-14T04:21:51.274Z,103356.73
2019-05-14T04:22:19.015Z,103361.52
2019-05-14T04:22:43.171Z,103359.56
2019-05-14T04:23:09.367Z,103361.22
2019-05-14T04:23:39.692Z,103357.95
2019-05-14T04:24:04.134Z,103360.05
2019-05-14T04:24:31.476Z,103364.38
2019-05-14T04:24:59.924Z,103357.94
2019-05-14T04:25:25.212Z,103362.75
2019-05-14T04:25:50.405Z,103359.44
2019-05-14T04:26:15.595Z,103362.41
2019-05-14T04:26:56.184Z,103362.33
2019-05-14T04:27:12.523Z,103367.17
2019-05-14T04:27:34.320Z,103364.80
2019-05-14T04:27:59.955Z,103366.08
2019-05-14T04:28:24.781Z,103365.04
2019-05-14T04:28:51.128Z,103363.58
2019-05-14T04:29:19.439Z,103365.19
2019-05-14T04:29:43.373Z,103365.57
2019-05-14T04:30:09.646Z,103370.84
2019-05-14T04:30:35.657Z,103365.78
2019-05-14T04:31:00.921Z,103366.98
2019-05-14T04:31:25.927Z,103367.30
2019-05-14T04:31:50.754Z,103367.16
2019-05-14T04:32:16.040Z,103368.41
2019-05-14T04:32:42.340Z,103372.23
2019-05-14T04:33:10.625Z,103368.48
2019-05-14T04:33:38.954Z,103370.16
2019-05-14T04:34:03.996Z,103367.30
2019-05-14T04:34:29.987Z,103362.66
2019-05-14T04:34:55.491Z,103368.81
2019-05-14T04:35:20.398Z,103361.45
2019-05-14T04:35:45.399Z,103367.17
2019-05-14T04:36:10.602Z,103363.42
2019-05-14T04:36:39.012Z,103363.30
2019-05-14T04:37:02.303Z,103361.33
2019-05-14T04:37:28.956Z,103363.38
2019-05-14T04:37:54.304Z,103360.58
2019-05-14T04:38:20.279Z,103359.53
2019-05-14T04:38:50.352Z,103362.59
2019-05-14T04:39:12.241Z,103362.94
2019-05-14T04:39:39.608Z,103364.55
2019-05-14T04:40:09.654Z,103362.19
2019-05-14T04:40:32.868Z,103359.39
2019-05-14T04:40:59.740Z,103358.80
2019-05-14T04:41:25.040Z,103353.30
2019-05-14T04:41:50.276Z,103353.67
2019-05-14T04:42:14.986Z,103359.44
2019-05-14T04:42:40.528Z,103357.08
2019-05-14T04:43:05.837Z,103357.50
2019-05-14T04:43:31.022Z,103357.45
2019-05-14T04:43:59.193Z,103361.05
2019-05-14T04:44:22.541Z,103356.91
2019-05-14T04:44:50.293Z,103354.62
2019-05-14T04:45:14.603Z,103353.69
2019-05-14T04:45:39.719Z,103354.07
2019-05-14T04:46:04.982Z,103359.03
2019-05-14T04:46:30.508Z,103357.20
2019-05-14T04:46:55.789Z,103353.14
2019-05-14T04:47:31.393Z,103353.60
2019-05-14T04:47:49.859Z,103352.20
2019-05-14T04:48:30.989Z,103351.78
2019-05-14T04:48:43.449Z,103353.60
2019-05-14T04:49:09.682Z,103352.67
2019-05-14T04:49:35.145Z,103351.78
2019-05-14T04:50:00.381Z,103349.02
2019-05-14T04:50:25.953Z,103354.02
2019-05-14T04:50:51.582Z,103350.42
2019-05-14T04:51:19.648Z,103350.00